Historyczne dane pomiarowe

Dodano dane terminowe – wersja testowa.

Dane z okresu 1951-2019

Wersja bazy: 1.34 [2019-03-16, lista zmian], aktualizacja planowana na 2019-04-15

Dane meteo z obszaru Polski uzyskane na podstawie danych udostępnionych przez Instytut Meteorologii i Gospodarki Wodnej – Państwowy Instytut Badawczy.

 

Wybierz Datę:    

       

TemperaturaWilgotnośćWiatrCiśnienieOpadyŚniegCzas trwania zjawisk
 Stacja t tx tn tng RH VA  wxwx mslp ppp RRR   cm mm wxwxwxwxwxwxwx
1999-08-14 13.9 19.7 8.1 5.3 78.8- 3.0 1.0---- 0.0------------
1999-08-13 15.0 19.3 11.7 10.9 88.0- 6.0 1.0---- 0.0------------
1999-08-12 14.9 17.9 12.7 12.0 89.3- 7.7 1.7---- 0.0------------
1999-08-11 18.3 22.8 15.4 13.6 91.0- 5.7 1.7---- 41.8------------
1999-08-10 20.7 28.4 15.3 14.1 90.8- 7.0 2.0---- 20.2------------
1999-08-09 20.8 29.1 15.4 13.0 82.5- 3.3 2.3---- 10.2------------
1999-08-08 21.2 27.0 16.0 14.1 89.5- 5.0 0.0---- 0.0------------
1999-08-07 20.1 27.2 12.8 10.3 82.8- 6.0 2.3---- 0.3------------
1999-08-06 18.6 25.2 10.6 8.0 90.5- 6.0 1.0---- 1.8------------
1999-08-05 17.3 24.2 9.7 5.8 77.8- 3.3 1.0---- 3.8------------
1999-08-04 15.6 22.3 8.6 6.1 90.3- 2.3 1.0---- 0.0------------
1999-08-03 14.5 20.2 9.0 6.3 88.3- 7.7 0.7---- 0.0------------
1999-08-02 14.1 18.2 9.1 6.7 89.5- 7.7 0.0---- 0.4------------
1999-08-01 15.6 21.2 11.6 10.1 90.3- 7.0 0.3---- 4.0------------
1999-07-31 16.1 23.0 8.6 6.1 83.5- 5.7 0.7---- 0.0------------
1999-07-30 15.5 21.6 8.0 5.9 84.8- 3.3 0.3---- 0.0------------
1999-07-29 16.5 20.8 12.0 8.9 85.0- 3.0 1.3---- 0.0------------
1999-07-28 18.1 22.9 14.7 14.7 88.0- 5.3 0.0---- 0.0------------
1999-07-27 18.2 22.4 15.6 14.7 90.8- 8.0 1.0---- 1.1------------
1999-07-26 18.7 24.9 12.3 9.7 91.5- 8.0 0.0---- 17.4------------
1999-07-25 17.0 22.3 10.8 8.8 84.0- 2.3 0.7---- 0.0------------
1999-07-24 15.3 19.4 11.4 11.1 93.0- 7.7 0.7---- 0.0------------
1999-07-23 14.6 18.8 11.6 11.6 91.3- 8.0 1.3---- 11.8------------
1999-07-22 19.2 23.9 15.8 12.6 67.0- 7.0 1.0---- 11.2------------
1999-07-21 21.4 28.0 12.3 12.1 77.8- 4.3 2.0---- 0.0------------
1999-07-20 19.7 27.8 11.3 8.9 70.8- 2.3 0.0---- 0.0------------
1999-07-19 18.8 26.6 11.1 8.6 81.5- 2.0 0.3---- 0.0------------
1999-07-18 17.7 24.4 8.8 6.5 77.3- 1.3 0.7---- 0.0------------
1999-07-17 16.2 22.2 9.6 9.1 85.0- 6.0 0.3---- 0.0------------
1999-07-16 15.8 20.7 9.4 7.6 84.8- 4.7 1.0---- 0.3------------
1999-07-15 16.5 20.4 13.8 13.6 86.3- 6.0 2.7---- 0.0------------
1999-07-14 20.1 24.3 16.3 15.0 84.3- 7.0 2.0---- 3.7------------
1999-07-13 20.0 23.8 16.2 14.8 87.0- 7.3 1.3---- 15.6------------
1999-07-12 19.9 24.9 14.8 12.7 85.5- 7.7 2.3---- 0.4------------
1999-07-11 18.4 20.0 16.2 16.0 89.3- 7.7 1.3---- 12.2------------
1999-07-10 18.7 22.2 15.7 15.4 89.0- 8.0 2.0---- 1.6------------
1999-07-09 18.7 22.0 15.4 15.0 90.5- 8.0 1.7---- 0.4------------
1999-07-08 19.2 21.9 17.0 16.5 90.5- 8.0 1.0---- 10.3------------
1999-07-07 21.2 27.2 16.3 13.2 91.8- 5.7 0.7---- 50.7------------
1999-07-06 24.1 30.2 18.3 14.1 74.8- 1.7 4.0---- 0.0------------
1999-07-05 23.2 30.1 16.6 13.2 75.5- 0.3 2.0---- 0.0------------
1999-07-04 22.2 29.4 13.8 11.2 74.0- 0.0 1.3---- 0.0------------
1999-07-03 17.5 24.7 12.7 10.2 87.8- 4.0 1.3---- 0.0------------
1999-07-02 20.3 24.8 16.1 13.6 86.8- 4.7 1.0---- 0.0------------
1999-07-01 18.6 25.4 11.3 9.1 83.3- 5.3 1.7---- 0.0------------
1999-06-30 18.6 24.1 12.2 10.4 86.0- 5.7 0.3---- 0.0------------
1999-06-29 19.6 24.7 14.0 11.6 84.0- 4.3 2.0---- 0.0------------
1999-06-28 19.4 26.8 12.0 9.1 82.0- 4.0 1.3---- 0.0------------
1999-06-27 19.5 26.4 11.2 7.1 67.8- 0.0 2.3---- 0.0------------
1999-06-26 14.2 23.1 4.6 3.0 83.8- 2.3 1.7---- 0.0------------
1999-06-25 12.1 18.8 4.0 -0.7 87.5- 1.7 0.7---- 0.0------------
1999-06-24 10.2 12.4 7.6 7.1 92.5- 8.0 0.7---- 0.0------------
1999-06-23 8.1 9.6 6.4 6.3 89.5- 8.0 4.0---- 9.3------------
1999-06-22 10.6 16.4 7.4 7.2 95.8- 8.0 6.3---- 21.6------------
1999-06-21 17.3 20.7 15.2 13.1 92.3- 8.0 0.0---- 39.2------------
1999-06-20 17.9 21.9 14.2 12.4 92.3- 7.7 0.7---- 0.6------------
1999-06-19 15.7 20.6 12.6 10.0 90.5- 7.7 2.0---- 0.0------------
1999-06-18 18.0 20.6 16.4 13.5 94.5- 8.0 0.7---- 15.6------------
1999-06-17 17.9 21.7 15.2 14.4 94.5- 7.3 1.7---- 17.3------------
1999-06-16 17.0 20.3 14.4 13.6 92.8- 8.0 0.0---- 16.2------------
375.9 ms

 

Źródłem pochodzenia danych jest Instytut Meteorologii i Gospodarki Wodnej – Państwowy Instytut Badawczy. Dane Instytutu Meteorologii i Gospodarki Wodnej – Państwowego Instytutu Badawczego zostały przetworzone.

Dane źródłowe można odnaleźć na stronie https://dane.imgw.pl